Aviation Digital Data Service (ADDS)

Output produced by METARs form (0244 UTC 24 July 2017)
found at http://www.aviationweather.gov/adds/metars/
 
TAF FIMR 232350Z 2400/2418 09015G25KT 9999 SCT018 
     PROB30 
     TEMPO 2402/2406 7000 -SHRA FEW010 BKN016 BKN050
       
FIMP 240200Z 11010KT 9999 SCT016 23/18 Q1020
TAF FIMP 232345Z 2400/2506 11008KT 9999 SCT017 
     PROB30 
     TEMPO 2402/2412 7000 -SHRA FEW010 BKN015 BKN050